sensor_id;sensor_type;location;lat;lon;timestamp;temperature;humidity
25468;DHT22;13384;24.794;110.498;2022-07-29T00:08:59;27.50;99.90
25468;DHT22;13384;24.794;110.498;2022-07-29T00:15:05;27.70;99.90
25468;DHT22;13384;24.794;110.498;2022-07-29T00:27:26;27.90;99.90
25468;DHT22;13384;24.794;110.498;2022-07-29T00:33:30;28.10;99.90
25468;DHT22;13384;24.794;110.498;2022-07-29T00:39:35;28.30;99.90
25468;DHT22;13384;24.794;110.498;2022-07-29T01:05:04;29.00;99.90
25468;DHT22;13384;24.794;110.498;2022-07-29T01:11:35;29.00;99.90
25468;DHT22;13384;24.794;110.498;2022-07-29T01:21:06;29.30;99.90
25468;DHT22;13384;24.794;110.498;2022-07-29T01:29:59;29.80;99.90
25468;DHT22;13384;24.794;110.498;2022-07-29T01:50:18;30.10;99.90
25468;DHT22;13384;24.794;110.498;2022-07-29T01:52:53;30.20;99.90
25468;DHT22;13384;24.794;110.498;2022-07-29T02:02:24;30.40;99.90
25468;DHT22;13384;24.794;110.498;2022-07-29T02:20:57;30.90;99.90
25468;DHT22;13384;24.794;110.498;2022-07-29T02:27:41;30.90;99.90
25468;DHT22;13384;24.794;110.498;2022-07-29T02:33:52;31.20;99.90
25468;DHT22;13384;24.794;110.498;2022-07-29T02:39:52;31.40;99.90
25468;DHT22;13384;24.794;110.498;2022-07-29T02:46:18;31.60;99.90
25468;DHT22;13384;24.794;110.498;2022-07-29T02:56:01;31.90;99.70
25468;DHT22;13384;24.794;110.498;2022-07-29T02:58:59;32.10;98.80
25468;DHT22;13384;24.794;110.498;2022-07-29T03:01:49;32.10;97.50
25468;DHT22;13384;24.794;110.498;2022-07-29T03:07:57;32.50;95.70
25468;DHT22;13384;24.794;110.498;2022-07-29T03:31:41;33.10;94.70
25468;DHT22;13384;24.794;110.498;2022-07-29T03:34:14;33.00;94.20
25468;DHT22;13384;24.794;110.498;2022-07-29T03:37:06;33.10;95.00
25468;DHT22;13384;24.794;110.498;2022-07-29T03:43:53;33.70;93.20
25468;DHT22;13384;24.794;110.498;2022-07-29T03:58:48;33.90;93.80
25468;DHT22;13384;24.794;110.498;2022-07-29T04:01:40;34.30;94.00
25468;DHT22;13384;24.794;110.498;2022-07-29T04:08:29;34.10;93.60
25468;DHT22;13384;24.794;110.498;2022-07-29T04:11:41;34.50;93.40
25468;DHT22;13384;24.794;110.498;2022-07-29T04:17:46;34.80;92.20
25468;DHT22;13384;24.794;110.498;2022-07-29T04:20:16;35.10;91.80
25468;DHT22;13384;24.794;110.498;2022-07-29T04:30:05;34.30;92.60
25468;DHT22;13384;24.794;110.498;2022-07-29T04:42:20;33.80;93.60
25468;DHT22;13384;24.794;110.498;2022-07-29T04:54:56;34.60;91.30
25468;DHT22;13384;24.794;110.498;2022-07-29T05:06:59;35.10;91.80
25468;DHT22;13384;24.794;110.498;2022-07-29T05:15:54;34.90;92.60
25468;DHT22;13384;24.794;110.498;2022-07-29T05:18:28;34.90;92.30
25468;DHT22;13384;24.794;110.498;2022-07-29T05:24:28;34.50;92.70
25468;DHT22;13384;24.794;110.498;2022-07-29T05:31:04;34.90;92.20
25468;DHT22;13384;24.794;110.498;2022-07-29T05:37:13;35.00;90.60
25468;DHT22;13384;24.794;110.498;2022-07-29T05:56:31;35.10;90.10
25468;DHT22;13384;24.794;110.498;2022-07-29T05:59:03;35.30;90.60
25468;DHT22;13384;24.794;110.498;2022-07-29T06:15:43;35.30;89.00
25468;DHT22;13384;24.794;110.498;2022-07-29T06:21:36;35.60;87.00
25468;DHT22;13384;24.794;110.498;2022-07-29T06:27:33;36.10;84.30
25468;DHT22;13384;24.794;110.498;2022-07-29T06:31:10;36.30;86.40
25468;DHT22;13384;24.794;110.498;2022-07-29T06:34:01;35.70;87.10
25468;DHT22;13384;24.794;110.498;2022-07-29T06:47:11;35.90;86.60
25468;DHT22;13384;24.794;110.498;2022-07-29T06:53:07;36.40;88.10
25468;DHT22;13384;24.794;110.498;2022-07-29T07:02:15;36.30;86.20
25468;DHT22;13384;24.794;110.498;2022-07-29T07:04:47;36.60;85.90
25468;DHT22;13384;24.794;110.498;2022-07-29T07:18:46;36.30;84.50
25468;DHT22;13384;24.794;110.498;2022-07-29T07:25:17;36.50;86.90
25468;DHT22;13384;24.794;110.498;2022-07-29T07:32:02;36.30;86.70
25468;DHT22;13384;24.794;110.498;2022-07-29T07:34:57;36.70;83.90
25468;DHT22;13384;24.794;110.498;2022-07-29T07:41:31;36.50;86.30
25468;DHT22;13384;24.794;110.498;2022-07-29T07:44:22;36.20;85.80
25468;DHT22;13384;24.794;110.498;2022-07-29T07:50:34;36.30;77.50
25468;DHT22;13384;24.794;110.498;2022-07-29T07:53:06;36.50;75.20
25468;DHT22;13384;24.794;110.498;2022-07-29T08:03:21;36.80;76.00
25468;DHT22;13384;24.794;110.498;2022-07-29T08:07:02;36.90;78.90
25468;DHT22;13384;24.794;110.498;2022-07-29T08:13:28;36.30;79.30
25468;DHT22;13384;24.794;110.498;2022-07-29T08:16:13;36.20;82.10
25468;DHT22;13384;24.794;110.498;2022-07-29T08:19:18;36.00;81.20
25468;DHT22;13384;24.794;110.498;2022-07-29T08:22:36;35.60;83.20
25468;DHT22;13384;24.794;110.498;2022-07-29T08:29:03;35.70;83.80
25468;DHT22;13384;24.794;110.498;2022-07-29T08:32:04;36.00;83.50
25468;DHT22;13384;24.794;110.498;2022-07-29T08:34:35;35.60;84.20
25468;DHT22;13384;24.794;110.498;2022-07-29T08:37:08;35.50;86.00
25468;DHT22;13384;24.794;110.498;2022-07-29T08:39:40;35.80;85.80
25468;DHT22;13384;24.794;110.498;2022-07-29T08:42:37;36.20;87.30
25468;DHT22;13384;24.794;110.498;2022-07-29T08:45:11;36.40;86.40
25468;DHT22;13384;24.794;110.498;2022-07-29T08:47:45;36.50;83.60
25468;DHT22;13384;24.794;110.498;2022-07-29T08:50:37;36.60;84.00
25468;DHT22;13384;24.794;110.498;2022-07-29T08:53:37;36.50;82.90
25468;DHT22;13384;24.794;110.498;2022-07-29T08:56:41;36.30;84.40
25468;DHT22;13384;24.794;110.498;2022-07-29T08:59:41;36.30;83.30
25468;DHT22;13384;24.794;110.498;2022-07-29T09:02:19;36.40;83.90
25468;DHT22;13384;24.794;110.498;2022-07-29T09:05:09;36.30;84.40
25468;DHT22;13384;24.794;110.498;2022-07-29T09:07:44;36.10;84.60
25468;DHT22;13384;24.794;110.498;2022-07-29T09:10:20;36.00;86.50
25468;DHT22;13384;24.794;110.498;2022-07-29T09:13:04;36.00;86.60
25468;DHT22;13384;24.794;110.498;2022-07-29T09:15:58;35.90;87.10
25468;DHT22;13384;24.794;110.498;2022-07-29T09:18:56;35.70;88.50
25468;DHT22;13384;24.794;110.498;2022-07-29T09:21:53;35.90;87.00
25468;DHT22;13384;24.794;110.498;2022-07-29T09:24:57;35.80;87.10
25468;DHT22;13384;24.794;110.498;2022-07-29T09:27:29;35.70;87.30
25468;DHT22;13384;24.794;110.498;2022-07-29T09:30:05;35.50;86.80
25468;DHT22;13384;24.794;110.498;2022-07-29T09:33:31;35.70;88.30
25468;DHT22;13384;24.794;110.498;2022-07-29T09:36:26;35.00;88.80
25468;DHT22;13384;24.794;110.498;2022-07-29T09:39:22;34.80;89.80
25468;DHT22;13384;24.794;110.498;2022-07-29T09:41:59;34.50;90.40
25468;DHT22;13384;24.794;110.498;2022-07-29T09:44:54;34.50;90.90
25468;DHT22;13384;24.794;110.498;2022-07-29T09:47:45;34.60;90.80
25468;DHT22;13384;24.794;110.498;2022-07-29T09:50:42;34.80;91.30
25468;DHT22;13384;24.794;110.498;2022-07-29T09:53:34;34.90;90.20
25468;DHT22;13384;24.794;110.498;2022-07-29T09:56:41;34.70;90.50
25468;DHT22;13384;24.794;110.498;2022-07-29T09:59:25;34.60;90.60
25468;DHT22;13384;24.794;110.498;2022-07-29T10:02:14;34.50;90.60
25468;DHT22;13384;24.794;110.498;2022-07-29T10:04:51;34.10;91.10
25468;DHT22;13384;24.794;110.498;2022-07-29T10:07:25;33.80;92.30
25468;DHT22;13384;24.794;110.498;2022-07-29T10:09:57;33.70;91.80
25468;DHT22;13384;24.794;110.498;2022-07-29T10:12:48;33.50;92.20
25468;DHT22;13384;24.794;110.498;2022-07-29T10:15:22;33.40;92.60
25468;DHT22;13384;24.794;110.498;2022-07-29T10:18:20;33.40;92.70
25468;DHT22;13384;24.794;110.498;2022-07-29T10:21:05;33.40;93.70
25468;DHT22;13384;24.794;110.498;2022-07-29T10:23:36;33.30;93.30
25468;DHT22;13384;24.794;110.498;2022-07-29T10:26:15;33.10;94.60
25468;DHT22;13384;24.794;110.498;2022-07-29T10:28:47;33.00;94.60
25468;DHT22;13384;24.794;110.498;2022-07-29T10:31:34;33.00;94.10
25468;DHT22;13384;24.794;110.498;2022-07-29T10:44:35;32.30;94.80
25468;DHT22;13384;24.794;110.498;2022-07-29T10:47:42;32.10;95.00
25468;DHT22;13384;24.794;110.498;2022-07-29T10:51:03;32.00;94.90
25468;DHT22;13384;24.794;110.498;2022-07-29T10:53:50;32.00;95.00
25468;DHT22;13384;24.794;110.498;2022-07-29T10:56:28;31.90;95.20
25468;DHT22;13384;24.794;110.498;2022-07-29T11:01:50;31.80;95.10
25468;DHT22;13384;24.794;110.498;2022-07-29T11:14:03;31.60;95.50
25468;DHT22;13384;24.794;110.498;2022-07-29T11:17:05;31.70;95.80
25468;DHT22;13384;24.794;110.498;2022-07-29T11:19:42;31.50;95.80
25468;DHT22;13384;24.794;110.498;2022-07-29T11:22:34;31.50;96.00
25468;DHT22;13384;24.794;110.498;2022-07-29T11:25:38;31.50;96.10
25468;DHT22;13384;24.794;110.498;2022-07-29T11:31:36;31.40;96.90
25468;DHT22;13384;24.794;110.498;2022-07-29T11:34:31;31.30;97.40
25468;DHT22;13384;24.794;110.498;2022-07-29T11:40:08;31.10;97.40
25468;DHT22;13384;24.794;110.498;2022-07-29T11:43:01;31.10;98.00
25468;DHT22;13384;24.794;110.498;2022-07-29T11:45:49;31.00;98.10
25468;DHT22;13384;24.794;110.498;2022-07-29T11:48:45;31.00;98.00
25468;DHT22;13384;24.794;110.498;2022-07-29T11:52:11;31.00;98.40
25468;DHT22;13384;24.794;110.498;2022-07-29T11:55:17;30.90;98.30
25468;DHT22;13384;24.794;110.498;2022-07-29T11:57:57;30.80;98.00
25468;DHT22;13384;24.794;110.498;2022-07-29T12:01:05;30.80;98.30
25468;DHT22;13384;24.794;110.498;2022-07-29T12:03:34;30.80;98.70
25468;DHT22;13384;24.794;110.498;2022-07-29T12:06:22;30.80;98.50
25468;DHT22;13384;24.794;110.498;2022-07-29T12:08:56;30.70;98.80
25468;DHT22;13384;24.794;110.498;2022-07-29T12:11:27;30.70;99.00
25468;DHT22;13384;24.794;110.498;2022-07-29T12:14:32;30.60;99.10
25468;DHT22;13384;24.794;110.498;2022-07-29T12:18:05;30.60;99.10
25468;DHT22;13384;24.794;110.498;2022-07-29T12:20:37;30.40;99.90
25468;DHT22;13384;24.794;110.498;2022-07-29T12:23:08;30.30;99.90
25468;DHT22;13384;24.794;110.498;2022-07-29T12:26:17;29.90;99.90
25468;DHT22;13384;24.794;110.498;2022-07-29T12:29:01;30.00;99.90
25468;DHT22;13384;24.794;110.498;2022-07-29T12:32:04;30.10;99.90
25468;DHT22;13384;24.794;110.498;2022-07-29T12:34:47;30.10;99.90
25468;DHT22;13384;24.794;110.498;2022-07-29T12:37:43;30.20;99.90
25468;DHT22;13384;24.794;110.498;2022-07-29T12:40:35;30.10;99.90
25468;DHT22;13384;24.794;110.498;2022-07-29T12:46:00;29.90;99.90
25468;DHT22;13384;24.794;110.498;2022-07-29T12:49:04;29.90;99.90
25468;DHT22;13384;24.794;110.498;2022-07-29T12:52:26;29.80;99.90
25468;DHT22;13384;24.794;110.498;2022-07-29T12:54:58;29.70;99.90
25468;DHT22;13384;24.794;110.498;2022-07-29T12:57:44;29.70;99.90
25468;DHT22;13384;24.794;110.498;2022-07-29T13:01:06;29.70;99.90
25468;DHT22;13384;24.794;110.498;2022-07-29T13:04:05;29.70;99.90
25468;DHT22;13384;24.794;110.498;2022-07-29T13:07:00;29.80;99.90
25468;DHT22;13384;24.794;110.498;2022-07-29T13:10:18;29.70;99.90
25468;DHT22;13384;24.794;110.498;2022-07-29T13:13:14;29.50;99.90
25468;DHT22;13384;24.794;110.498;2022-07-29T13:16:08;29.50;99.90
25468;DHT22;13384;24.794;110.498;2022-07-29T13:19:10;29.50;99.90
25468;DHT22;13384;24.794;110.498;2022-07-29T13:21:42;29.60;99.90
25468;DHT22;13384;24.794;110.498;2022-07-29T13:24:16;29.60;99.90
25468;DHT22;13384;24.794;110.498;2022-07-29T13:27:10;29.70;99.90
25468;DHT22;13384;24.794;110.498;2022-07-29T13:30:08;29.70;99.90
25468;DHT22;13384;24.794;110.498;2022-07-29T13:33:19;29.80;99.90
25468;DHT22;13384;24.794;110.498;2022-07-29T13:36:08;29.60;99.90
25468;DHT22;13384;24.794;110.498;2022-07-29T13:38:57;29.60;99.90
25468;DHT22;13384;24.794;110.498;2022-07-29T13:41:47;29.60;99.90
25468;DHT22;13384;24.794;110.498;2022-07-29T13:44:36;29.70;99.90
25468;DHT22;13384;24.794;110.498;2022-07-29T13:47:26;29.50;99.90
25468;DHT22;13384;24.794;110.498;2022-07-29T13:50:28;29.30;99.90
25468;DHT22;13384;24.794;110.498;2022-07-29T13:53:20;29.30;99.90
25468;DHT22;13384;24.794;110.498;2022-07-29T13:55:50;29.20;99.90
25468;DHT22;13384;24.794;110.498;2022-07-29T13:58:46;29.10;99.90
25468;DHT22;13384;24.794;110.498;2022-07-29T14:01:36;29.20;99.90
25468;DHT22;13384;24.794;110.498;2022-07-29T14:04:18;29.30;99.90
25468;DHT22;13384;24.794;110.498;2022-07-29T14:07:10;29.40;99.90
25468;DHT22;13384;24.794;110.498;2022-07-29T14:10:07;29.20;99.90
25468;DHT22;13384;24.794;110.498;2022-07-29T14:12:39;29.30;99.90
25468;DHT22;13384;24.794;110.498;2022-07-29T14:15:12;29.20;99.90
25468;DHT22;13384;24.794;110.498;2022-07-29T14:17:44;29.10;99.90
25468;DHT22;13384;24.794;110.498;2022-07-29T14:20:15;29.00;99.90
25468;DHT22;13384;24.794;110.498;2022-07-29T14:23:07;29.10;99.90
25468;DHT22;13384;24.794;110.498;2022-07-29T14:25:41;29.20;99.90
25468;DHT22;13384;24.794;110.498;2022-07-29T14:28:12;29.10;99.90
25468;DHT22;13384;24.794;110.498;2022-07-29T14:30:44;29.10;99.90
25468;DHT22;13384;24.794;110.498;2022-07-29T14:33:15;29.10;99.90
25468;DHT22;13384;24.794;110.498;2022-07-29T14:35:48;29.10;99.90
25468;DHT22;13384;24.794;110.498;2022-07-29T14:38:42;29.10;99.90
25468;DHT22;13384;24.794;110.498;2022-07-29T14:41:33;29.00;99.90
25468;DHT22;13384;24.794;110.498;2022-07-29T14:44:25;28.90;99.90
25468;DHT22;13384;24.794;110.498;2022-07-29T14:47:21;28.90;99.90
25468;DHT22;13384;24.794;110.498;2022-07-29T14:49:53;29.00;99.90
25468;DHT22;13384;24.794;110.498;2022-07-29T14:52:25;29.00;99.90
25468;DHT22;13384;24.794;110.498;2022-07-29T14:54:58;29.00;99.90
25468;DHT22;13384;24.794;110.498;2022-07-29T14:57:32;29.10;99.90
25468;DHT22;13384;24.794;110.498;2022-07-29T15:00:58;28.70;99.90
25468;DHT22;13384;24.794;110.498;2022-07-29T15:03:31;28.70;99.90
25468;DHT22;13384;24.794;110.498;2022-07-29T15:06:04;28.80;99.90
25468;DHT22;13384;24.794;110.498;2022-07-29T15:08:58;28.80;99.90
25468;DHT22;13384;24.794;110.498;2022-07-29T15:11:52;28.90;99.90
25468;DHT22;13384;24.794;110.498;2022-07-29T15:14:25;28.80;99.90
25468;DHT22;13384;24.794;110.498;2022-07-29T15:17:16;28.80;99.90
25468;DHT22;13384;24.794;110.498;2022-07-29T15:20:08;28.60;99.90
25468;DHT22;13384;24.794;110.498;2022-07-29T15:23:20;28.70;99.90
25468;DHT22;13384;24.794;110.498;2022-07-29T15:26:17;28.80;99.90
25468;DHT22;13384;24.794;110.498;2022-07-29T15:28:50;28.70;99.90
25468;DHT22;13384;24.794;110.498;2022-07-29T15:31:26;28.80;99.90
25468;DHT22;13384;24.794;110.498;2022-07-29T15:34:42;28.80;99.90
25468;DHT22;13384;24.794;110.498;2022-07-29T15:37:26;28.80;99.90
25468;DHT22;13384;24.794;110.498;2022-07-29T15:40:42;28.80;99.90
25468;DHT22;13384;24.794;110.498;2022-07-29T15:44:15;28.70;99.90
25468;DHT22;13384;24.794;110.498;2022-07-29T15:46:51;28.70;99.90
25468;DHT22;13384;24.794;110.498;2022-07-29T15:49:56;28.60;99.90
25468;DHT22;13384;24.794;110.498;2022-07-29T15:52:26;28.60;99.90
25468;DHT22;13384;24.794;110.498;2022-07-29T15:54:56;28.60;99.90
25468;DHT22;13384;24.794;110.498;2022-07-29T15:58:11;28.60;99.90
25468;DHT22;13384;24.794;110.498;2022-07-29T16:00:41;28.60;99.90
25468;DHT22;13384;24.794;110.498;2022-07-29T16:03:10;28.60;99.90
25468;DHT22;13384;24.794;110.498;2022-07-29T16:05:39;28.60;99.90
25468;DHT22;13384;24.794;110.498;2022-07-29T16:08:28;28.60;99.90
25468;DHT22;13384;24.794;110.498;2022-07-29T16:11:32;28.60;99.90
25468;DHT22;13384;24.794;110.498;2022-07-29T16:14:37;28.50;99.90
25468;DHT22;13384;24.794;110.498;2022-07-29T16:17:31;28.50;99.90
25468;DHT22;13384;24.794;110.498;2022-07-29T16:20:30;28.50;99.90
25468;DHT22;13384;24.794;110.498;2022-07-29T16:23:49;28.60;99.90
25468;DHT22;13384;24.794;110.498;2022-07-29T16:26:19;28.60;99.90
25468;DHT22;13384;24.794;110.498;2022-07-29T16:29:04;28.60;99.90
25468;DHT22;13384;24.794;110.498;2022-07-29T16:32:15;28.50;99.90
25468;DHT22;13384;24.794;110.498;2022-07-29T16:34:44;28.40;99.90
25468;DHT22;13384;24.794;110.498;2022-07-29T16:37:29;28.30;99.90
25468;DHT22;13384;24.794;110.498;2022-07-29T16:40:17;28.30;99.90
25468;DHT22;13384;24.794;110.498;2022-07-29T16:43:12;28.40;99.90
25468;DHT22;13384;24.794;110.498;2022-07-29T16:45:57;28.30;99.90
25468;DHT22;13384;24.794;110.498;2022-07-29T16:49:02;28.30;99.90
25468;DHT22;13384;24.794;110.498;2022-07-29T16:51:54;28.30;99.90
25468;DHT22;13384;24.794;110.498;2022-07-29T16:54:43;28.30;99.90
25468;DHT22;13384;24.794;110.498;2022-07-29T16:57:32;28.30;99.90
25468;DHT22;13384;24.794;110.498;2022-07-29T17:00:23;28.30;99.90
25468;DHT22;13384;24.794;110.498;2022-07-29T17:03:27;28.30;99.90
25468;DHT22;13384;24.794;110.498;2022-07-29T17:06:40;28.20;99.90
25468;DHT22;13384;24.794;110.498;2022-07-29T17:09:25;28.20;99.90
25468;DHT22;13384;24.794;110.498;2022-07-29T17:12:09;28.20;99.90
25468;DHT22;13384;24.794;110.498;2022-07-29T17:15:13;28.20;99.90
25468;DHT22;13384;24.794;110.498;2022-07-29T17:18:14;28.20;99.90
25468;DHT22;13384;24.794;110.498;2022-07-29T17:21:04;28.10;99.90
25468;DHT22;13384;24.794;110.498;2022-07-29T17:23:54;28.10;99.90
25468;DHT22;13384;24.794;110.498;2022-07-29T17:26:27;28.10;99.90
25468;DHT22;13384;24.794;110.498;2022-07-29T17:29:16;28.10;99.90
25468;DHT22;13384;24.794;110.498;2022-07-29T17:32:08;28.10;99.90
25468;DHT22;13384;24.794;110.498;2022-07-29T17:34:39;28.10;99.90
25468;DHT22;13384;24.794;110.498;2022-07-29T17:37:10;28.20;99.90
25468;DHT22;13384;24.794;110.498;2022-07-29T17:39:40;27.90;99.90
25468;DHT22;13384;24.794;110.498;2022-07-29T17:42:11;28.00;99.90
25468;DHT22;13384;24.794;110.498;2022-07-29T17:45:09;28.10;99.90
25468;DHT22;13384;24.794;110.498;2022-07-29T17:48:01;28.10;99.90
25468;DHT22;13384;24.794;110.498;2022-07-29T17:50:56;28.20;99.90
25468;DHT22;13384;24.794;110.498;2022-07-29T17:53:51;28.20;99.90
25468;DHT22;13384;24.794;110.498;2022-07-29T17:56:31;28.20;99.90
25468;DHT22;13384;24.794;110.498;2022-07-29T17:59:03;28.20;99.90
25468;DHT22;13384;24.794;110.498;2022-07-29T18:01:57;28.20;99.90
25468;DHT22;13384;24.794;110.498;2022-07-29T18:04:49;28.20;99.90
25468;DHT22;13384;24.794;110.498;2022-07-29T18:07:43;28.10;99.90
25468;DHT22;13384;24.794;110.498;2022-07-29T18:10:35;28.10;99.90
25468;DHT22;13384;24.794;110.498;2022-07-29T18:13:07;28.00;99.90
25468;DHT22;13384;24.794;110.498;2022-07-29T18:15:40;28.00;99.90
25468;DHT22;13384;24.794;110.498;2022-07-29T18:18:13;28.00;99.90
25468;DHT22;13384;24.794;110.498;2022-07-29T18:20:46;27.90;99.90
25468;DHT22;13384;24.794;110.498;2022-07-29T18:23:39;27.90;99.90
25468;DHT22;13384;24.794;110.498;2022-07-29T18:26:24;27.90;99.90
25468;DHT22;13384;24.794;110.498;2022-07-29T18:29:16;27.80;99.90
25468;DHT22;13384;24.794;110.498;2022-07-29T18:31:44;27.70;99.90
25468;DHT22;13384;24.794;110.498;2022-07-29T18:34:13;27.80;99.90
25468;DHT22;13384;24.794;110.498;2022-07-29T18:36:44;27.80;99.90
25468;DHT22;13384;24.794;110.498;2022-07-29T18:39:33;27.80;99.90
25468;DHT22;13384;24.794;110.498;2022-07-29T18:42:02;27.60;99.90
25468;DHT22;13384;24.794;110.498;2022-07-29T18:44:57;27.50;99.90
25468;DHT22;13384;24.794;110.498;2022-07-29T18:47:26;27.50;99.90
25468;DHT22;13384;24.794;110.498;2022-07-29T18:50:01;27.60;99.90
25468;DHT22;13384;24.794;110.498;2022-07-29T18:52:53;27.70;99.90
25468;DHT22;13384;24.794;110.498;2022-07-29T18:55:25;27.50;99.90
25468;DHT22;13384;24.794;110.498;2022-07-29T18:57:56;27.50;99.90
25468;DHT22;13384;24.794;110.498;2022-07-29T19:00:48;27.60;99.90
25468;DHT22;13384;24.794;110.498;2022-07-29T19:03:39;27.50;99.90
25468;DHT22;13384;24.794;110.498;2022-07-29T19:06:10;27.50;99.90
25468;DHT22;13384;24.794;110.498;2022-07-29T19:09:07;27.40;99.90
25468;DHT22;13384;24.794;110.498;2022-07-29T19:11:39;27.30;99.90
25468;DHT22;13384;24.794;110.498;2022-07-29T19:14:30;27.20;99.90
25468;DHT22;13384;24.794;110.498;2022-07-29T19:17:02;27.20;99.90
25468;DHT22;13384;24.794;110.498;2022-07-29T19:20:07;27.20;99.90
25468;DHT22;13384;24.794;110.498;2022-07-29T19:26:23;27.20;99.90
25468;DHT22;13384;24.794;110.498;2022-07-29T19:29:37;27.10;99.90
25468;DHT22;13384;24.794;110.498;2022-07-29T19:32:32;27.10;99.90
25468;DHT22;13384;24.794;110.498;2022-07-29T19:41:34;27.10;99.90
25468;DHT22;13384;24.794;110.498;2022-07-29T19:44:29;26.90;99.90
25468;DHT22;13384;24.794;110.498;2022-07-29T19:51:07;27.00;99.90
25468;DHT22;13384;24.794;110.498;2022-07-29T20:10:22;27.30;99.90
25468;DHT22;13384;24.794;110.498;2022-07-29T20:16:07;27.10;99.90
25468;DHT22;13384;24.794;110.498;2022-07-29T20:22:25;27.20;99.90
25468;DHT22;13384;24.794;110.498;2022-07-29T20:24:57;27.20;99.90
25468;DHT22;13384;24.794;110.498;2022-07-29T20:37:24;27.20;99.90
25468;DHT22;13384;24.794;110.498;2022-07-29T20:39:56;27.20;99.90
25468;DHT22;13384;24.794;110.498;2022-07-29T20:42:28;27.30;99.90
25468;DHT22;13384;24.794;110.498;2022-07-29T20:45:00;27.20;99.90
25468;DHT22;13384;24.794;110.498;2022-07-29T20:47:36;27.10;99.90
25468;DHT22;13384;24.794;110.498;2022-07-29T20:50:08;26.80;99.90
25468;DHT22;13384;24.794;110.498;2022-07-29T20:52:41;26.90;99.90
25468;DHT22;13384;24.794;110.498;2022-07-29T20:55:29;26.90;99.90
25468;DHT22;13384;24.794;110.498;2022-07-29T20:58:02;26.90;99.90
25468;DHT22;13384;24.794;110.498;2022-07-29T21:00:34;26.80;99.90
25468;DHT22;13384;24.794;110.498;2022-07-29T21:03:06;26.70;99.90
25468;DHT22;13384;24.794;110.498;2022-07-29T21:05:39;26.80;99.90
25468;DHT22;13384;24.794;110.498;2022-07-29T21:08:14;26.70;99.90
25468;DHT22;13384;24.794;110.498;2022-07-29T21:10:58;26.70;99.90
25468;DHT22;13384;24.794;110.498;2022-07-29T21:13:29;26.70;99.90
25468;DHT22;13384;24.794;110.498;2022-07-29T21:16:05;26.70;99.90
25468;DHT22;13384;24.794;110.498;2022-07-29T21:18:44;26.70;99.90
25468;DHT22;13384;24.794;110.498;2022-07-29T21:21:19;26.70;99.90
25468;DHT22;13384;24.794;110.498;2022-07-29T21:23:51;26.80;99.90
25468;DHT22;13384;24.794;110.498;2022-07-29T21:26:22;26.70;99.90
25468;DHT22;13384;24.794;110.498;2022-07-29T21:28:54;26.80;99.90
25468;DHT22;13384;24.794;110.498;2022-07-29T21:31:27;26.70;99.90
25468;DHT22;13384;24.794;110.498;2022-07-29T21:33:58;26.70;99.90
25468;DHT22;13384;24.794;110.498;2022-07-29T21:36:30;26.60;99.90
25468;DHT22;13384;24.794;110.498;2022-07-29T21:39:17;26.60;99.90
25468;DHT22;13384;24.794;110.498;2022-07-29T21:41:51;26.60;99.90
25468;DHT22;13384;24.794;110.498;2022-07-29T21:44:22;26.60;99.90
25468;DHT22;13384;24.794;110.498;2022-07-29T21:46:54;26.50;99.90
25468;DHT22;13384;24.794;110.498;2022-07-29T21:49:25;26.70;99.90
25468;DHT22;13384;24.794;110.498;2022-07-29T21:51:57;26.70;99.90
25468;DHT22;13384;24.794;110.498;2022-07-29T21:54:29;26.50;99.90
25468;DHT22;13384;24.794;110.498;2022-07-29T21:57:01;26.50;99.90
25468;DHT22;13384;24.794;110.498;2022-07-29T21:59:33;26.60;99.90
25468;DHT22;13384;24.794;110.498;2022-07-29T22:02:05;26.60;99.90
25468;DHT22;13384;24.794;110.498;2022-07-29T22:04:36;26.60;99.90
25468;DHT22;13384;24.794;110.498;2022-07-29T22:07:08;26.60;99.90
25468;DHT22;13384;24.794;110.498;2022-07-29T22:09:39;26.50;99.90
25468;DHT22;13384;24.794;110.498;2022-07-29T22:12:11;26.50;99.90
25468;DHT22;13384;24.794;110.498;2022-07-29T22:14:42;26.50;99.90
25468;DHT22;13384;24.794;110.498;2022-07-29T22:17:14;26.60;99.90
25468;DHT22;13384;24.794;110.498;2022-07-29T22:19:46;26.60;99.90
25468;DHT22;13384;24.794;110.498;2022-07-29T22:22:19;26.70;99.90
25468;DHT22;13384;24.794;110.498;2022-07-29T22:24:50;26.70;99.90
25468;DHT22;13384;24.794;110.498;2022-07-29T22:27:22;26.70;99.90
25468;DHT22;13384;24.794;110.498;2022-07-29T22:29:53;26.70;99.90
25468;DHT22;13384;24.794;110.498;2022-07-29T22:32:25;26.80;99.90
25468;DHT22;13384;24.794;110.498;2022-07-29T22:34:56;26.80;99.90
25468;DHT22;13384;24.794;110.498;2022-07-29T22:37:28;26.90;99.90
25468;DHT22;13384;24.794;110.498;2022-07-29T22:39:59;26.90;99.90
25468;DHT22;13384;24.794;110.498;2022-07-29T22:42:31;26.90;99.90
25468;DHT22;13384;24.794;110.498;2022-07-29T22:45:03;27.00;99.90
25468;DHT22;13384;24.794;110.498;2022-07-29T22:47:35;27.00;99.90
25468;DHT22;13384;24.794;110.498;2022-07-29T22:50:16;27.00;99.90
25468;DHT22;13384;24.794;110.498;2022-07-29T22:52:47;27.00;99.90
25468;DHT22;13384;24.794;110.498;2022-07-29T22:55:19;27.00;99.90
25468;DHT22;13384;24.794;110.498;2022-07-29T22:57:50;27.00;99.90
25468;DHT22;13384;24.794;110.498;2022-07-29T23:00:22;27.00;99.90
25468;DHT22;13384;24.794;110.498;2022-07-29T23:02:54;27.00;99.90
25468;DHT22;13384;24.794;110.498;2022-07-29T23:05:25;27.00;99.90
25468;DHT22;13384;24.794;110.498;2022-07-29T23:07:57;27.00;99.90
25468;DHT22;13384;24.794;110.498;2022-07-29T23:10:29;27.00;99.90
25468;DHT22;13384;24.794;110.498;2022-07-29T23:13:00;27.00;99.90
25468;DHT22;13384;24.794;110.498;2022-07-29T23:15:32;27.10;99.90
25468;DHT22;13384;24.794;110.498;2022-07-29T23:18:03;27.10;99.90
25468;DHT22;13384;24.794;110.498;2022-07-29T23:20:35;27.20;99.90
25468;DHT22;13384;24.794;110.498;2022-07-29T23:23:07;27.20;99.90
25468;DHT22;13384;24.794;110.498;2022-07-29T23:25:39;27.20;99.90
25468;DHT22;13384;24.794;110.498;2022-07-29T23:28:11;27.20;99.90
25468;DHT22;13384;24.794;110.498;2022-07-29T23:30:43;27.20;99.90
25468;DHT22;13384;24.794;110.498;2022-07-29T23:33:15;27.30;99.90
25468;DHT22;13384;24.794;110.498;2022-07-29T23:35:46;27.30;99.90